Meteo Giornale » Osservazioni meteo Kenya » Kisumu
ore: 22:00 - Osservazioni Meteo Kisumu
Lat. 0° 6' S Lon. 34° 45' E Alt. 1157 metri s.l.m.
23 °C
Sereno
Temp. 24 Ore
18 °C
32 °C
Nord-Est
14.8 Km/h
Dew point 14 °C
Umidità 56 %
Visibilità 10 Km
Il sole sorge alle ore 06:37
Il sole tramonta alle ore 18:44
| Data e Ora | Cielo e Fenomeni | T °C | DP °C | Um. % | Pres. hPa | Vis. km | Vento km/h | |
|---|---|---|---|---|---|---|---|---|
| Oggi h: 22:00 | Sereno | 23 | 14 | 56 | 1019 | 10 | NE 14.8 | |
| Oggi h: 21:30 | Nuvoloso | 25 | 14 | 50 | 1019 | 10 | N 0 | |
| Oggi h: 21:00 | Nuvoloso | 25 | 15 | 53 | 1018 | 10 | E 11.1 | |
| Oggi h: 20:30 | Nuvoloso | 25 | 15 | 53 | 1018 | 10 | E/SE 9.3 | |
| Oggi h: 20:00 | Nuvoloso | 26 | 13 | 44 | 1017 | 10 | N/NO 9.3 | |
| Oggi h: 19:30 | Molto Nuvoloso | 26 | 13 | 44 | 1017 | 10 | N 16.7 | |
| Oggi h: 19:00 | Molto Nuvoloso | 26 | 14 | 47 | 1017 | 10 | N/NE 25.9 | |
| Oggi h: 18:30 | Molto Nuvoloso | 27 | 14 | 44 | 1016 | 10 | NE 24 | |
| Oggi h: 18:00 | Molto Nuvoloso | 29 | 13 | 37 | 1016 | 10 | NO 9.3 | |
| Oggi h: 17:30 | Molto Nuvoloso | 30 | 13 | 35 | 1015 | 10 | O 11.1 | |
| Oggi h: 17:00 | Nuvoloso | 31 | 12 | 31 | 1015 | 10 | SO 14.8 | |
| Oggi h: 16:30 | Nuvoloso | 31 | 13 | 33 | 1015 | 10 | SO 14.8 | |
| Oggi h: 16:00 | Nuvoloso | 31 | 12 | 31 | 1015 | 10 | SO 16.7 | |
| Oggi h: 15:30 | Nuvoloso | 32 | 11 | 27 | 1016 | 10 | SO 14.8 | |
| Oggi h: 15:00 | Nuvoloso | 32 | 11 | 27 | 1016 | 10 | SO 18.5 | |
| Oggi h: 14:30 | Nuvoloso | 32 | 12 | 29 | 1017 | 10 | S/SO 13 | |
| Oggi h: 14:00 | Nuvoloso | 31 | 12 | 31 | 1017 | 10 | SO 16.7 | |
| Oggi h: 13:30 | Poco Nuvoloso | 32 | 12 | 29 | 1017 | 10 | SO 14.8 | |
| Oggi h: 13:00 | Poco Nuvoloso | 31 | 12 | 31 | 1018 | 10 | S 11.1 | |
| Oggi h: 12:30 | Poco Nuvoloso | 31 | 13 | 33 | 1019 | 10 | S/SE 7.4 | |
| Oggi h: 12:00 | Poco Nuvoloso | 29 | 12 | 35 | 1019 | 10 | N 7.4 | |
| Oggi h: 11:30 | Nuvoloso | 29 | 11 | 32 | 1020 | 10 | SE 7.4 | |
| Oggi h: 11:00 | Nuvoloso | 28 | 11 | 34 | 0 | 1 | E 9.3 | |
| Oggi h: 10:30 | Sereno | 26 | 11 | 39 | 1021 | 10 | E 11.1 | |
| Oggi h: 10:00 | Sereno | 26 | 12 | 41 | 1021 | 10 | E 13 | |
| Oggi h: 09:30 | Sereno | 25 | 12 | 44 | 1021 | 10 | E 11.1 | |
| Oggi h: 09:00 | Sereno | 23 | 11 | 46 | 1021 | 10 | E 14.8 | |
| Oggi h: 08:30 | Sereno | 22 | 12 | 53 | 1020 | 10 | E/NE 16.7 | |
| Oggi h: 08:00 | Sereno | 21 | 12 | 56 | 1020 | 10 | E 11.1 | |
| Oggi h: 07:30 | Sereno | 19 | 13 | 68 | 1020 | 10 | E/NE 11.1 | |
| Oggi h: 07:00 | Sereno | 19 | 11 | 59 | 1019 | 10 | E 9.3 | |
| Oggi h: 06:30 | Sereno | 19 | 11 | 59 | 1019 | 10 | E/NE 11.1 | |
| Oggi h: 06:00 | Sereno | 20 | 11 | 56 | 1019 | 10 | NE 7.4 | |
| Oggi h: 05:00 | Sereno | 18 | 12 | 67 | 1018 | 10 | E/NE 9.3 | |
| Oggi h: 04:00 | Sereno | 20 | 11 | 56 | 1018 | 10 | E/NE 9.3 | |
| Oggi h: 03:00 | Sereno | 21 | 11 | 52 | 1018 | 10 | NE 9.3 | |
| Oggi h: 02:00 | Sereno | 21 | 11 | 52 | 1018 | 10 | N 3.7 | |
| Oggi h: 01:00 | Sereno | 22 | 11 | 49 | 1018 | 10 | E/NE 9.3 | |
| Oggi h: 00:00 | Sereno | 23 | 12 | 49 | 1019 | 10 | E/NE 7.4 | |



